createdAt,value
2018-07-25T00:00:14.751Z,99.99
2018-07-25T00:01:14.956Z,99.99
2018-07-25T00:02:14.714Z,99.99
2018-07-25T00:03:14.632Z,99.99
2018-07-25T00:04:15.403Z,99.99
2018-07-25T00:05:14.588Z,99.99
2018-07-25T00:06:14.566Z,99.99
2018-07-25T00:07:14.950Z,99.99
2018-07-25T00:08:14.526Z,99.99
2018-07-25T00:09:15.394Z,99.99
2018-07-25T00:10:14.518Z,99.99
2018-07-25T00:11:14.457Z,99.99
2018-07-25T00:12:14.481Z,99.99
2018-07-25T00:13:14.454Z,99.99
2018-07-25T00:14:14.893Z,99.99
2018-07-25T00:15:14.369Z,99.99
2018-07-25T00:16:14.344Z,99.99
2018-07-25T00:17:14.319Z,99.99
2018-07-25T00:18:14.363Z,99.99
2018-07-25T00:19:14.897Z,99.99
2018-07-25T00:20:14.255Z,99.99
2018-07-25T00:21:14.243Z,99.99
2018-07-25T00:22:14.207Z,99.99
2018-07-25T00:23:14.448Z,99.99
2018-07-25T00:24:14.169Z,99.99
2018-07-25T00:25:14.151Z,99.99
2018-07-25T00:26:14.124Z,99.99
2018-07-25T00:27:14.111Z,99.99
2018-07-25T00:28:14.127Z,99.99
2018-07-25T00:29:14.054Z,99.99
2018-07-25T00:30:14.903Z,99.99
2018-07-25T00:31:14.016Z,99.99
2018-07-25T00:32:14.912Z,99.99
2018-07-25T00:33:14.014Z,99.99
2018-07-25T00:34:13.947Z,99.99
2018-07-25T00:35:13.919Z,99.99
2018-07-25T00:36:13.903Z,99.99
2018-07-25T00:37:13.884Z,99.99
2018-07-25T00:38:13.952Z,99.99
2018-07-25T00:39:13.847Z,99.99
2018-07-25T00:40:14.397Z,99.99
2018-07-25T00:41:13.836Z,99.99
2018-07-25T00:42:13.762Z,99.99
2018-07-25T00:43:14.404Z,99.99
2018-07-25T00:44:13.715Z,99.99
2018-07-25T00:45:14.401Z,99.99
2018-07-25T00:46:13.721Z,99.99
2018-07-25T00:47:13.708Z,99.99
2018-07-25T00:48:14.407Z,99.99
2018-07-25T00:49:13.603Z,99.99
2018-07-25T00:50:13.579Z,99.99
2018-07-25T00:51:13.566Z,99.99
2018-07-25T00:52:13.577Z,99.99
2018-07-25T00:53:13.561Z,99.99
2018-07-25T00:54:13.494Z,99.99
2018-07-25T00:55:13.471Z,99.99
2018-07-25T00:56:13.494Z,99.99
2018-07-25T00:57:13.952Z,99.99
2018-07-25T00:58:13.451Z,99.99
2018-07-25T00:59:13.378Z,99.99
2018-07-25T01:00:13.401Z,99.99
2018-07-25T01:01:13.465Z,99.99
2018-07-25T01:02:13.312Z,99.99
2018-07-25T01:03:13.290Z,99.99
2018-07-25T01:04:13.475Z,99.99
2018-07-25T01:05:13.242Z,99.99
2018-07-25T01:06:13.228Z,99.99
2018-07-25T01:07:13.907Z,99.99
2018-07-25T01:08:13.178Z,99.99
2018-07-25T01:09:13.466Z,99.99
2018-07-25T01:10:13.178Z,99.99
2018-07-25T01:11:13.169Z,99.99
2018-07-25T01:12:13.088Z,99.99
2018-07-25T01:13:13.105Z,99.99
2018-07-25T01:14:13.909Z,99.99
2018-07-25T01:15:13.017Z,99.99
2018-07-25T01:16:13.060Z,99.99
2018-07-25T01:17:12.975Z,99.99
2018-07-25T01:18:13.912Z,99.99
2018-07-25T01:19:12.935Z,99.99
2018-07-25T01:20:12.903Z,99.99
2018-07-25T01:21:13.002Z,99.99
2018-07-25T01:22:12.860Z,99.99
2018-07-25T01:23:12.840Z,99.99
2018-07-25T01:24:12.818Z,99.99
2018-07-25T01:25:13.417Z,99.99
2018-07-25T01:26:12.827Z,99.99
2018-07-25T01:27:12.755Z,99.99
2018-07-25T01:28:13.418Z,99.99
2018-07-25T01:29:12.704Z,99.99
2018-07-25T01:30:13.415Z,99.99
2018-07-25T01:31:12.704Z,99.99
2018-07-25T01:32:12.681Z,99.99
2018-07-25T01:33:12.605Z,99.99
2018-07-25T01:34:12.583Z,99.99
2018-07-25T01:35:12.570Z,99.99
2018-07-25T01:36:12.584Z,99.99
2018-07-25T01:37:12.514Z,99.99
2018-07-25T01:38:12.493Z,99.99
2018-07-25T01:39:12.476Z,99.99
2018-07-25T01:40:12.498Z,99.99
2018-07-25T01:41:13.419Z,99.99
2018-07-25T01:42:12.404Z,99.99
2018-07-25T01:43:12.381Z,99.99
2018-07-25T01:44:12.358Z,99.99
2018-07-25T01:45:12.382Z,99.99
2018-07-25T01:46:12.923Z,99.99
2018-07-25T01:47:12.288Z,99.99
2018-07-25T01:48:12.265Z,99.99
2018-07-25T01:49:12.920Z,99.99
2018-07-25T01:50:12.267Z,99.99
2018-07-25T01:51:12.925Z,99.99
2018-07-25T01:52:12.175Z,99.99
2018-07-25T01:53:12.204Z,99.99
2018-07-25T01:54:12.919Z,99.99
2018-07-25T01:55:12.116Z,99.99
2018-07-25T01:56:12.082Z,99.99
2018-07-25T01:57:12.490Z,99.99
2018-07-25T01:58:12.088Z,99.99
2018-07-25T01:59:12.013Z,99.99
2018-07-25T02:00:11.995Z,99.99
2018-07-25T02:01:12.931Z,99.99
2018-07-25T02:02:11.949Z,99.99
2018-07-25T02:03:11.972Z,99.99
2018-07-25T02:04:11.979Z,99.99
2018-07-25T02:05:11.881Z,99.99
2018-07-25T02:06:11.857Z,99.99
2018-07-25T02:07:11.884Z,99.99
2018-07-25T02:08:11.910Z,99.99
2018-07-25T02:09:11.791Z,99.99
2018-07-25T02:10:11.806Z,99.99
2018-07-25T02:11:11.742Z,99.99
2018-07-25T02:12:11.716Z,99.99
2018-07-25T02:13:11.695Z,99.99
2018-07-25T02:14:11.717Z,99.99
2018-07-25T02:15:11.649Z,99.99
2018-07-25T02:16:12.431Z,99.99
2018-07-25T02:17:11.645Z,99.99
2018-07-25T02:18:11.577Z,99.99
2018-07-25T02:19:11.557Z,99.99
2018-07-25T02:20:11.542Z,99.99
2018-07-25T02:21:11.573Z,99.99
2018-07-25T02:22:11.491Z,99.99
2018-07-25T02:23:11.466Z,99.99
2018-07-25T02:24:11.505Z,99.99
2018-07-25T02:25:11.424Z,99.99
2018-07-25T02:26:11.444Z,99.99
2018-07-25T02:27:11.379Z,99.99
2018-07-25T02:28:11.351Z,99.99
2018-07-25T02:29:11.335Z,99.99
2018-07-25T02:30:11.353Z,99.99
2018-07-25T02:31:11.282Z,99.99
2018-07-25T02:32:11.312Z,99.99
2018-07-25T02:33:11.233Z,99.99
2018-07-25T02:34:11.217Z,99.99
2018-07-25T02:35:11.234Z,99.99
2018-07-25T02:36:11.172Z,99.99
2018-07-25T02:37:11.194Z,99.99
2018-07-25T02:38:11.119Z,99.99
2018-07-25T02:39:11.104Z,99.99
2018-07-25T02:40:11.947Z,99.99
2018-07-25T02:41:11.054Z,99.99
2018-07-25T02:42:11.082Z,99.99
2018-07-25T02:43:11.013Z,99.99
2018-07-25T02:44:10.984Z,99.99
2018-07-25T02:45:10.963Z,99.99
2018-07-25T02:46:10.937Z,99.99
2018-07-25T02:47:10.956Z,99.99
2018-07-25T02:48:10.893Z,99.99
2018-07-25T02:49:10.866Z,99.99
2018-07-25T02:50:10.845Z,99.99
2018-07-25T02:51:10.816Z,99.99
2018-07-25T02:52:11.745Z,99.99
2018-07-25T02:53:10.774Z,99.99
2018-07-25T02:54:10.751Z,99.99
2018-07-25T02:55:10.775Z,99.99
2018-07-25T02:56:10.752Z,99.99
2018-07-25T02:57:10.683Z,99.99
2018-07-25T02:58:10.657Z,99.99
2018-07-25T02:59:11.440Z,99.99
2018-07-25T03:00:10.613Z,99.99
2018-07-25T03:01:10.654Z,99.99
2018-07-25T03:02:10.565Z,99.99
2018-07-25T03:03:10.542Z,99.99
2018-07-25T03:04:10.518Z,99.99
2018-07-25T03:05:10.497Z,99.99
2018-07-25T03:06:10.535Z,99.99
2018-07-25T03:07:10.450Z,99.99
2018-07-25T03:08:10.441Z,99.99
2018-07-25T03:09:10.522Z,99.99
2018-07-25T03:10:10.380Z,99.99
2018-07-25T03:11:10.410Z,99.99
2018-07-25T03:12:10.335Z,99.99
2018-07-25T03:13:10.307Z,99.99
2018-07-25T03:14:10.494Z,99.99
2018-07-25T03:15:10.268Z,99.99
2018-07-25T03:16:10.237Z,99.99
2018-07-25T03:17:10.263Z,99.99
2018-07-25T03:18:10.195Z,99.99
2018-07-25T03:19:10.173Z,99.99
2018-07-25T03:20:10.192Z,99.99
2018-07-25T03:21:10.124Z,99.99
2018-07-25T03:22:10.102Z,99.99
2018-07-25T03:23:10.078Z,99.99
2018-07-25T03:24:10.057Z,99.99
2018-07-25T03:25:10.086Z,99.99
2018-07-25T03:26:10.009Z,99.99
2018-07-25T03:27:09.983Z,99.99
2018-07-25T03:28:09.962Z,99.99
2018-07-25T03:29:09.937Z,99.99
2018-07-25T03:30:09.956Z,99.99
2018-07-25T03:31:09.934Z,99.99
2018-07-25T03:32:09.866Z,99.99
2018-07-25T03:33:10.439Z,99.99
2018-07-25T03:34:09.821Z,99.99
2018-07-25T03:35:09.797Z,99.99
2018-07-25T03:36:09.819Z,99.99
2018-07-25T03:37:09.752Z,99.99
2018-07-25T03:38:09.730Z,99.99
2018-07-25T03:39:09.706Z,99.99
2018-07-25T03:40:09.678Z,99.99
2018-07-25T03:41:09.701Z,99.99
2018-07-25T03:42:09.637Z,99.99
2018-07-25T03:43:09.614Z,99.99
2018-07-25T03:44:09.593Z,99.99
2018-07-25T03:45:09.563Z,99.99
2018-07-25T03:46:09.586Z,99.99
2018-07-25T03:47:09.564Z,99.99
2018-07-25T03:48:09.496Z,99.99
2018-07-25T03:49:09.478Z,99.99
2018-07-25T03:50:09.445Z,99.99
2018-07-25T03:51:09.425Z,99.99
2018-07-25T03:52:09.446Z,99.99
2018-07-25T03:53:09.377Z,99.99
2018-07-25T03:54:09.435Z,99.99
2018-07-25T03:55:09.342Z,99.99
2018-07-25T03:56:09.315Z,99.99
2018-07-25T03:57:09.282Z,99.99
2018-07-25T03:58:09.261Z,99.99
2018-07-25T03:59:09.294Z,99.99
2018-07-25T04:00:09.216Z,99.99
2018-07-25T04:01:09.192Z,99.99
2018-07-25T04:02:09.170Z,99.99
2018-07-25T04:03:09.151Z,99.99
2018-07-25T04:04:09.170Z,99.99
2018-07-25T04:05:09.100Z,99.99
2018-07-25T04:06:09.081Z,99.99
2018-07-25T04:07:09.056Z,99.99
2018-07-25T04:08:09.081Z,99.99
2018-07-25T04:09:09.122Z,99.99
2018-07-25T04:10:09.032Z,99.99
2018-07-25T04:11:08.963Z,99.99
2018-07-25T04:12:08.942Z,99.99
2018-07-25T04:13:08.917Z,99.99
2018-07-25T04:14:08.953Z,99.99
2018-07-25T04:15:08.873Z,99.99
2018-07-25T04:16:08.849Z,99.99
2018-07-25T04:17:08.825Z,99.99
2018-07-25T04:18:08.801Z,99.99
2018-07-25T04:19:08.825Z,99.99
2018-07-25T04:20:08.757Z,99.99
2018-07-25T04:21:08.774Z,99.99
2018-07-25T04:22:08.758Z,99.99
2018-07-25T04:23:08.691Z,99.99
2018-07-25T04:24:08.669Z,99.99
2018-07-25T04:25:08.642Z,99.99
2018-07-25T04:26:08.621Z,99.99
2018-07-25T04:27:08.646Z,99.99
2018-07-25T04:28:08.629Z,99.99
2018-07-25T04:29:08.557Z,99.99
2018-07-25T04:30:08.529Z,99.99
2018-07-25T04:31:08.514Z,99.99
2018-07-25T04:32:08.487Z,99.99
2018-07-25T04:33:08.509Z,99.99
2018-07-25T04:34:08.443Z,99.99
2018-07-25T04:35:08.415Z,99.99
2018-07-25T04:36:08.405Z,99.99
2018-07-25T04:37:08.419Z,99.99
2018-07-25T04:38:08.356Z,99.99
2018-07-25T04:39:08.329Z,99.99
2018-07-25T04:40:08.361Z,99.99
2018-07-25T04:41:08.283Z,99.99
2018-07-25T04:42:08.269Z,99.99
2018-07-25T04:43:08.236Z,99.99
2018-07-25T04:44:08.216Z,99.99
2018-07-25T04:45:08.248Z,99.99
2018-07-25T04:46:08.228Z,99.99
2018-07-25T04:47:08.160Z,99.99
2018-07-25T04:48:08.130Z,99.99
2018-07-25T04:49:08.105Z,99.99
2018-07-25T04:50:08.151Z,99.99
2018-07-25T04:51:08.060Z,99.99
2018-07-25T04:52:08.045Z,99.99
2018-07-25T04:53:08.016Z,99.99
2018-07-25T04:54:07.992Z,99.99
2018-07-25T04:55:08.013Z,99.99
2018-07-25T04:56:07.966Z,99.99
2018-07-25T04:57:07.933Z,99.99
2018-07-25T04:58:07.903Z,99.99
2018-07-25T04:59:07.931Z,99.99
2018-07-25T05:00:07.859Z,99.99
2018-07-25T05:01:07.837Z,99.99
2018-07-25T05:02:07.817Z,99.99
2018-07-25T05:03:07.801Z,99.99
2018-07-25T05:04:07.824Z,99.99
2018-07-25T05:05:07.751Z,99.99
2018-07-25T05:06:07.740Z,99.99
2018-07-25T05:07:07.729Z,99.99
2018-07-25T05:08:07.688Z,99.99
2018-07-25T05:09:07.713Z,99.99
2018-07-25T05:10:07.644Z,99.99
2018-07-25T05:11:07.623Z,99.99
2018-07-25T05:12:07.605Z,99.99
2018-07-25T05:13:07.590Z,99.99
2018-07-25T05:14:07.604Z,99.99
2018-07-25T05:15:07.585Z,99.99
2018-07-25T05:16:07.517Z,99.99
2018-07-25T05:17:07.495Z,99.99
2018-07-25T05:18:07.482Z,99.99
2018-07-25T05:19:07.508Z,99.99
2018-07-25T05:20:07.439Z,99.99
2018-07-25T05:21:07.410Z,99.99
2018-07-25T05:22:07.398Z,99.99
2018-07-25T05:23:07.381Z,99.99
2018-07-25T05:24:07.409Z,99.99
2018-07-25T05:25:07.339Z,99.99
2018-07-25T05:26:07.359Z,99.99
2018-07-25T05:27:07.292Z,99.99
2018-07-25T05:28:07.281Z,99.99
2018-07-25T05:29:07.248Z,99.99
2018-07-25T05:30:07.303Z,99.99
2018-07-25T05:31:07.256Z,99.99
2018-07-25T05:32:07.193Z,99.99
2018-07-25T05:33:07.167Z,99.99
2018-07-25T05:34:07.150Z,99.99
2018-07-25T05:35:07.176Z,99.99
2018-07-25T05:36:07.107Z,99.99
2018-07-25T05:37:07.136Z,99.99
2018-07-25T05:38:07.084Z,99.99
2018-07-25T05:39:07.050Z,99.99
2018-07-25T05:40:07.027Z,99.99
2018-07-25T05:41:07.009Z,99.99
2018-07-25T05:42:07.037Z,99.99
2018-07-25T05:43:06.972Z,99.99
2018-07-25T05:44:06.994Z,99.50
2018-07-25T05:45:06.930Z,98.58
2018-07-25T05:46:06.912Z,98.20
2018-07-25T05:47:06.892Z,98.78
2018-07-25T05:48:06.871Z,97.42
2018-07-25T05:49:06.895Z,97.42
2018-07-25T05:50:06.834Z,98.78
2018-07-25T05:51:06.814Z,97.91
2018-07-25T05:52:06.795Z,95.98
2018-07-25T05:53:06.820Z,95.88
2018-07-25T05:54:06.751Z,95.30
2018-07-25T05:55:07.480Z,95.54
2018-07-25T05:56:06.763Z,95.15
2018-07-25T05:57:06.694Z,95.06
2018-07-25T05:58:06.675Z,94.96
2018-07-25T05:59:06.658Z,95.06
2018-07-25T06:00:06.688Z,94.57
2018-07-25T06:01:06.609Z,93.71
2018-07-25T06:02:06.600Z,93.99
2018-07-25T06:03:06.657Z,94.09
2018-07-25T06:04:06.557Z,93.32
2018-07-25T06:05:06.581Z,92.93
2018-07-25T06:06:06.563Z,93.23
2018-07-25T06:07:06.544Z,93.41
2018-07-25T06:08:06.478Z,92.93
2018-07-25T06:09:06.458Z,92.45
2018-07-25T06:10:06.435Z,92.59
2018-07-25T06:11:06.416Z,91.91
2018-07-25T06:12:06.544Z,91.72
2018-07-25T06:13:06.440Z,91.24
2018-07-25T06:14:06.401Z,90.37
2018-07-25T06:15:06.337Z,91.05
2018-07-25T06:16:06.335Z,90.85
2018-07-25T06:17:06.307Z,90.75
2018-07-25T06:18:06.325Z,90.75
2018-07-25T06:19:06.258Z,90.27
2018-07-25T06:20:06.285Z,90.47
2018-07-25T06:21:06.233Z,90.27
2018-07-25T06:22:06.202Z,89.98
2018-07-25T06:23:06.179Z,89.69
2018-07-25T06:24:06.217Z,89.59
2018-07-25T06:25:06.144Z,89.69
2018-07-25T06:26:06.121Z,89.45
2018-07-25T06:27:06.104Z,89.06
2018-07-25T06:28:06.083Z,89.15
2018-07-25T06:29:06.113Z,88.67
2018-07-25T06:30:06.089Z,88.29
2018-07-25T06:31:06.027Z,87.71
2018-07-25T06:32:06.004Z,88.09
2018-07-25T06:33:06.034Z,88.19
2018-07-25T06:34:05.966Z,87.71
2018-07-25T06:35:05.958Z,87.55
2018-07-25T06:36:05.970Z,87.95
2018-07-25T06:37:05.915Z,87.55
2018-07-25T06:38:05.940Z,87.46
2018-07-25T06:39:05.876Z,87.17
2018-07-25T06:40:05.852Z,86.78
2018-07-25T06:41:05.849Z,86.59
2018-07-25T06:42:05.812Z,86.40
2018-07-25T06:43:05.828Z,86.30
2018-07-25T06:44:05.771Z,86.69
2018-07-25T06:45:05.778Z,86.10
2018-07-25T06:46:05.776Z,85.72
2018-07-25T06:47:05.714Z,84.94
2018-07-25T06:48:05.699Z,85.33
2018-07-25T06:49:05.682Z,85.42
2018-07-25T06:50:05.654Z,85.42
2018-07-25T06:51:05.690Z,84.99
2018-07-25T06:52:05.621Z,84.69
2018-07-25T06:53:05.606Z,84.99
2018-07-25T06:54:05.583Z,84.41
2018-07-25T06:55:05.569Z,84.21
2018-07-25T06:56:05.628Z,83.83
2018-07-25T06:57:05.532Z,83.73
2018-07-25T06:58:05.503Z,83.63
2018-07-25T06:59:05.495Z,83.53
2018-07-25T07:00:05.466Z,83.63
2018-07-25T07:01:05.497Z,82.80
2018-07-25T07:02:05.429Z,82.80
2018-07-25T07:03:05.459Z,82.51
2018-07-25T07:04:05.390Z,83.09
2018-07-25T07:05:05.372Z,83.67
2018-07-25T07:06:05.350Z,82.70
2018-07-25T07:07:05.337Z,83.00
2018-07-25T07:08:05.359Z,82.51
2018-07-25T07:09:05.308Z,83.00
2018-07-25T07:10:05.276Z,82.90
2018-07-25T07:11:05.262Z,82.41
2018-07-25T07:12:05.278Z,82.12
2018-07-25T07:13:05.241Z,81.64
2018-07-25T07:14:05.201Z,81.83
2018-07-25T07:15:05.185Z,82.22
2018-07-25T07:16:05.163Z,82.32
2018-07-25T07:17:05.147Z,82.22
2018-07-25T07:18:05.169Z,81.64
2018-07-25T07:19:05.110Z,81.93
2018-07-25T07:20:05.136Z,81.87
2018-07-25T07:21:05.075Z,81.64
2018-07-25T07:22:05.055Z,81.29
2018-07-25T07:23:05.117Z,81.25
2018-07-25T07:24:05.068Z,80.80
2018-07-25T07:25:05.041Z,81.00
2018-07-25T07:26:04.975Z,80.96
2018-07-25T07:27:04.957Z,81.48
2018-07-25T07:28:04.941Z,80.90
2018-07-25T07:29:04.969Z,81.10
2018-07-25T07:30:04.902Z,81.39
2018-07-25T07:31:04.954Z,81.29
2018-07-25T07:32:04.869Z,80.71
2018-07-25T07:33:04.851Z,80.62
2018-07-25T07:34:04.873Z,80.90
2018-07-25T07:35:04.848Z,80.42
2018-07-25T07:36:05.062Z,80.03
2018-07-25T07:37:04.770Z,79.49
2018-07-25T07:38:04.768Z,79.30
2018-07-25T07:39:04.749Z,79.30
2018-07-25T07:40:04.761Z,79.20
2018-07-25T07:41:04.744Z,78.71
2018-07-25T07:42:04.725Z,79.20
2018-07-25T07:43:04.663Z,78.81
2018-07-25T07:44:04.708Z,78.46
2018-07-25T07:45:04.635Z,77.29
2018-07-25T07:46:04.651Z,77.49
2018-07-25T07:47:04.632Z,77.01
2018-07-25T07:48:04.567Z,75.94
2018-07-25T07:49:04.551Z,76.04
2018-07-25T07:50:04.530Z,76.23
2018-07-25T07:51:04.567Z,75.55
2018-07-25T07:52:04.543Z,75.94
2018-07-25T07:53:04.475Z,75.45
2018-07-25T07:54:04.486Z,75.26
2018-07-25T07:55:04.442Z,75.26
2018-07-25T07:56:04.420Z,75.26
2018-07-25T07:57:04.450Z,75.65
2018-07-25T07:58:04.386Z,75.45
2018-07-25T07:59:04.369Z,76.14
2018-07-25T08:00:04.351Z,75.16
2018-07-25T08:01:04.342Z,75.45
2018-07-25T08:02:04.336Z,75.30
2018-07-25T08:03:04.293Z,75.10
2018-07-25T08:04:04.299Z,75.16
2018-07-25T08:05:04.296Z,74.68
2018-07-25T08:06:04.237Z,74.62
2018-07-25T08:07:04.219Z,75.16
2018-07-25T08:08:04.231Z,75.26
2018-07-25T08:09:04.222Z,75.07
2018-07-25T08:10:04.168Z,74.81
2018-07-25T08:11:04.146Z,74.04
2018-07-25T08:12:04.131Z,73.74
2018-07-25T08:13:04.119Z,72.87
2018-07-25T08:14:04.147Z,72.19
2018-07-25T08:15:04.078Z,72.09
2018-07-25T08:16:04.118Z,71.42
2018-07-25T08:17:04.041Z,71.61
2018-07-25T08:18:04.040Z,71.55
2018-07-25T08:19:04.090Z,70.97
2018-07-25T08:20:04.016Z,71.16
2018-07-25T08:21:04.555Z,71.36
2018-07-25T08:22:03.963Z,70.97
2018-07-25T08:23:03.982Z,71.26
2018-07-25T08:24:03.914Z,71.55
2018-07-25T08:25:03.900Z,71.64
2018-07-25T08:26:03.877Z,71.36
2018-07-25T08:27:03.871Z,70.87
2018-07-25T08:28:03.895Z,71.45
2018-07-25T08:29:03.831Z,71.16
2018-07-25T08:30:03.805Z,70.00
2018-07-25T08:31:03.794Z,70.71
2018-07-25T08:32:03.769Z,70.51
2018-07-25T08:33:03.813Z,70.81
2018-07-25T08:34:03.737Z,70.22
2018-07-25T08:35:03.714Z,68.96
2018-07-25T08:36:03.704Z,69.38
2018-07-25T08:37:03.683Z,70.16
2018-07-25T08:38:03.717Z,69.67
2018-07-25T08:39:03.644Z,69.87
2018-07-25T08:40:03.632Z,69.29
2018-07-25T08:41:03.628Z,68.32
2018-07-25T08:42:03.606Z,67.93
2018-07-25T08:43:03.620Z,68.02
2018-07-25T08:44:03.558Z,68.32
2018-07-25T08:45:03.537Z,68.41
2018-07-25T08:46:03.575Z,68.99
2018-07-25T08:47:03.503Z,68.90
2018-07-25T08:48:03.484Z,68.02
2018-07-25T08:49:03.469Z,68.51
2018-07-25T08:50:03.463Z,68.12
2018-07-25T08:51:03.515Z,68.02
2018-07-25T08:52:03.417Z,68.99
2018-07-25T08:53:03.400Z,68.15
2018-07-25T08:54:03.937Z,68.02
2018-07-25T08:55:03.411Z,67.96
2018-07-25T08:56:03.391Z,67.24
2018-07-25T08:57:03.342Z,67.86
2018-07-25T08:58:03.311Z,67.57
2018-07-25T08:59:03.340Z,67.86
2018-07-25T09:00:03.279Z,67.47
2018-07-25T09:01:03.259Z,66.69
2018-07-25T09:02:03.245Z,67.28
2018-07-25T09:03:03.269Z,67.28
2018-07-25T09:04:03.208Z,66.60
2018-07-25T09:05:03.240Z,66.40
2018-07-25T09:06:03.170Z,66.69
2018-07-25T09:07:03.199Z,66.73
2018-07-25T09:08:03.140Z,66.44
2018-07-25T09:09:03.122Z,66.53
2018-07-25T09:10:03.145Z,67.02
2018-07-25T09:11:03.090Z,66.44
2018-07-25T09:12:03.112Z,67.80
2018-07-25T09:13:03.057Z,67.60
2018-07-25T09:14:03.034Z,66.14
2018-07-25T09:15:03.018Z,65.79
2018-07-25T09:16:03.048Z,65.37
2018-07-25T09:17:03.029Z,65.59
2018-07-25T09:18:02.963Z,65.79
2018-07-25T09:19:02.993Z,64.62
2018-07-25T09:20:02.988Z,65.59
2018-07-25T09:21:02.915Z,65.50
2018-07-25T09:22:02.897Z,64.84
2018-07-25T09:23:02.882Z,65.33
2018-07-25T09:24:02.864Z,64.94
2018-07-25T09:25:02.949Z,64.65
2018-07-25T09:26:02.831Z,63.97
2018-07-25T09:27:02.857Z,63.78
2018-07-25T09:28:02.801Z,64.20
2018-07-25T09:29:02.782Z,63.87
2018-07-25T09:30:02.767Z,63.39
2018-07-25T09:31:02.791Z,63.68
2018-07-25T09:32:02.732Z,62.54
2018-07-25T09:33:02.715Z,63.87
2018-07-25T09:34:02.771Z,63.87
2018-07-25T09:35:02.686Z,63.71
2018-07-25T09:36:02.711Z,63.51
2018-07-25T09:37:02.652Z,63.42
2018-07-25T09:38:02.633Z,62.73
2018-07-25T09:39:02.620Z,62.44
2018-07-25T09:40:02.604Z,61.37
2018-07-25T09:41:02.673Z,62.08
2018-07-25T09:42:02.588Z,61.37
2018-07-25T09:43:02.551Z,61.37
2018-07-25T09:44:02.543Z,62.25
2018-07-25T09:45:02.546Z,62.12
2018-07-25T09:46:02.570Z,63.29
2018-07-25T09:47:02.562Z,62.51
2018-07-25T09:48:02.476Z,62.51
2018-07-25T09:49:02.456Z,62.15
2018-07-25T09:50:02.490Z,61.96
2018-07-25T09:51:02.428Z,62.35
2018-07-25T09:52:02.450Z,62.57
2018-07-25T09:53:02.412Z,62.66
2018-07-25T09:54:02.417Z,62.28
2018-07-25T09:55:02.359Z,62.47
2018-07-25T09:56:02.342Z,62.66
2018-07-25T09:57:02.331Z,62.66
2018-07-25T09:58:02.330Z,62.47
2018-07-25T09:59:02.349Z,61.99
2018-07-25T10:00:02.303Z,62.05
2018-07-25T10:01:02.297Z,62.66
2018-07-25T10:02:02.267Z,62.38
2018-07-25T10:03:02.228Z,61.89
2018-07-25T10:04:02.211Z,62.28
2018-07-25T10:05:02.225Z,61.89
2018-07-25T10:06:02.195Z,61.92
2018-07-25T10:07:02.199Z,61.72
2018-07-25T10:08:02.149Z,61.72
2018-07-25T10:09:02.146Z,60.26
2018-07-25T10:10:02.159Z,60.00
2018-07-25T10:11:02.125Z,60.00
2018-07-25T10:12:02.096Z,59.90
2018-07-25T10:13:02.154Z,60.19
2018-07-25T10:14:02.073Z,60.29
2018-07-25T10:15:02.045Z,59.97
2018-07-25T10:16:02.021Z,61.63
2018-07-25T10:17:02.012Z,61.14
2018-07-25T10:18:02.034Z,61.82
2018-07-25T10:19:01.979Z,61.17
2018-07-25T10:20:01.958Z,60.10
2018-07-25T10:21:01.944Z,60.10
2018-07-25T10:22:01.949Z,59.70
2018-07-25T10:23:01.968Z,59.22
2018-07-25T10:24:01.903Z,60.10
2018-07-25T10:25:01.883Z,59.77
2018-07-25T10:26:01.866Z,60.06
2018-07-25T10:27:01.864Z,58.92
2018-07-25T10:28:01.892Z,59.51
2018-07-25T10:29:01.831Z,59.48
2018-07-25T10:30:01.805Z,60.29
2018-07-25T10:31:01.793Z,59.80
2018-07-25T10:32:01.783Z,58.44
2018-07-25T10:33:01.882Z,59.38
2018-07-25T10:34:01.808Z,58.80
2018-07-25T10:35:01.736Z,59.35
2018-07-25T10:36:01.724Z,59.26
2018-07-25T10:37:01.728Z,59.58
2018-07-25T10:38:01.684Z,59.58
2018-07-25T10:39:01.741Z,59.48
2018-07-25T10:40:01.646Z,59.28
2018-07-25T10:41:01.674Z,58.83
2018-07-25T10:42:01.612Z,58.53
2018-07-25T10:43:01.597Z,58.37
2018-07-25T10:44:01.583Z,58.04
2018-07-25T10:45:01.629Z,57.26
2018-07-25T10:46:01.590Z,57.59
2018-07-25T10:47:01.547Z,57.49
2018-07-25T10:48:01.528Z,58.56
2018-07-25T10:49:01.502Z,57.88
2018-07-25T10:50:01.488Z,57.68
2018-07-25T10:51:01.519Z,56.71
2018-07-25T10:52:01.457Z,56.32
2018-07-25T10:53:01.440Z,56.84
2018-07-25T10:54:01.478Z,56.45
2018-07-25T10:55:01.426Z,56.93
2018-07-25T10:56:01.508Z,55.96
2018-07-25T10:57:01.385Z,55.86
2018-07-25T10:58:01.364Z,55.76
2018-07-25T10:59:01.411Z,56.25
2018-07-25T11:00:01.333Z,56.25
2018-07-25T11:01:01.321Z,56.64
2018-07-25T11:02:01.357Z,56.05
2018-07-25T11:03:01.288Z,55.86
2018-07-25T11:04:01.351Z,56.05
2018-07-25T11:05:01.311Z,56.05
2018-07-25T11:06:01.257Z,56.32
2018-07-25T11:07:01.226Z,56.61
2018-07-25T11:08:01.229Z,56.58
2018-07-25T11:09:01.195Z,56.77
2018-07-25T11:10:01.338Z,57.26
2018-07-25T11:11:01.200Z,57.85
2018-07-25T11:12:01.152Z,57.53
2018-07-25T11:13:01.134Z,58.89
2018-07-25T11:14:01.120Z,58.22
2018-07-25T11:15:01.153Z,58.18
2018-07-25T11:16:01.136Z,59.45
2018-07-25T11:17:01.073Z,59.06
2018-07-25T11:18:01.056Z,58.58
2018-07-25T11:19:01.049Z,59.26
2018-07-25T11:20:01.070Z,58.67
2018-07-25T11:21:01.105Z,58.87
2018-07-25T11:22:00.989Z,58.48
2018-07-25T11:23:01.005Z,58.58
2018-07-25T11:24:00.960Z,58.40
2018-07-25T11:25:00.948Z,58.40
2018-07-25T11:26:00.969Z,57.82
2018-07-25T11:27:00.910Z,57.65
2018-07-25T11:28:00.898Z,57.07
2018-07-25T11:29:00.881Z,56.97
2018-07-25T11:30:00.864Z,57.26
2018-07-25T11:31:00.908Z,57.98
2018-07-25T11:32:00.837Z,57.68
2018-07-25T11:33:00.816Z,57.10
2018-07-25T11:34:00.804Z,56.41
2018-07-25T11:35:00.795Z,55.83
2018-07-25T11:36:00.833Z,56.22
2018-07-25T11:37:00.758Z,56.05
2018-07-25T11:38:00.740Z,56.15
2018-07-25T11:39:00.727Z,55.96
2018-07-25T11:40:00.755Z,54.49
2018-07-25T11:41:00.711Z,54.30
2018-07-25T11:42:00.694Z,54.49
2018-07-25T11:43:00.668Z,54.59
2018-07-25T11:44:00.649Z,54.98
2018-07-25T11:45:00.671Z,55.05
2018-07-25T11:46:00.614Z,54.46
2018-07-25T11:47:00.647Z,54.27
2018-07-25T11:48:00.592Z,54.56
2018-07-25T11:49:00.573Z,54.46
2018-07-25T11:50:00.560Z,54.66
2018-07-25T11:51:00.543Z,54.07
2018-07-25T11:52:00.571Z,54.17
2018-07-25T11:53:00.510Z,54.36
2018-07-25T11:54:00.496Z,54.27
2018-07-25T11:55:00.484Z,54.27
2018-07-25T11:56:00.465Z,54.66
2018-07-25T11:57:00.507Z,54.85
2018-07-25T11:58:01.094Z,55.83
2018-07-25T11:59:00.419Z,55.93
2018-07-25T12:00:00.422Z,54.66
2018-07-25T12:01:00.418Z,54.17
2018-07-25T12:02:00.416Z,54.59
2018-07-25T12:03:00.357Z,54.95
2018-07-25T12:04:00.341Z,53.88
2018-07-25T12:05:00.326Z,54.07
2018-07-25T12:06:00.329Z,54.07
2018-07-25T12:08:00.284Z,53.39
2018-07-25T12:09:00.269Z,53.00
2018-07-25T12:10:00.264Z,53.29
2018-07-25T12:11:00.235Z,53.00
2018-07-25T12:12:00.264Z,52.61
2018-07-25T12:13:00.240Z,53.00
2018-07-25T12:14:00.185Z,53.19
2018-07-25T12:15:00.224Z,53.39
2018-07-25T12:16:00.169Z,54.27
2018-07-25T12:17:00.140Z,54.20
2018-07-25T12:18:00.122Z,52.15
2018-07-25T12:19:00.105Z,52.83
2018-07-25T12:20:00.136Z,52.05
2018-07-25T12:21:00.081Z,51.29
2018-07-25T12:22:00.063Z,51.29
2018-07-25T12:23:00.058Z,51.29
2018-07-25T12:24:00.031Z,50.81
2018-07-25T12:25:00.069Z,50.34
2018-07-25T12:25:59.997Z,50.63
2018-07-25T12:26:59.984Z,50.73
2018-07-25T12:27:59.969Z,51.71
2018-07-25T12:28:59.951Z,50.83
2018-07-25T12:29:59.989Z,50.93
2018-07-25T12:30:59.925Z,50.24
2018-07-25T12:31:59.927Z,50.73
2018-07-25T12:32:59.889Z,50.73
2018-07-25T12:33:59.874Z,50.73
2018-07-25T12:34:59.912Z,50.63
2018-07-25T12:35:59.852Z,51.42
2018-07-25T12:36:59.831Z,50.83
2018-07-25T12:37:59.814Z,50.73
2018-07-25T12:38:59.802Z,50.90
2018-07-25T12:39:59.829Z,50.71
2018-07-25T12:40:59.770Z,51.78
2018-07-25T12:41:59.754Z,51.59
2018-07-25T12:42:59.739Z,51.88
2018-07-25T12:43:59.727Z,51.78
2018-07-25T12:44:59.752Z,50.81
2018-07-25T12:45:59.742Z,51.66
2018-07-25T12:46:59.681Z,51.07
2018-07-25T12:48:00.606Z,51.17
2018-07-25T12:48:59.698Z,51.37
2018-07-25T12:49:59.635Z,51.59
2018-07-25T12:50:59.619Z,50.90
2018-07-25T12:51:59.648Z,50.88
2018-07-25T12:52:59.590Z,50.68